Time;durP1;ratioP1;P1;durP2;ratioP2;P2;SDS_P1;SDS_P2;PMS_P1;PMS_P2;Temp;Humidity;BMP_temperature;BMP_pressure;BME280_temperature;BME280_humidity;BME280_pressure;Samples;Min_cycle;Max_cycle;Signal;HPM_P1;HPM_P2
2022/07/22 00:00:32;;;;;;;5.28;4.05;;;19.10;99.90;;;;;;5017591;28;20209;-78
2022/07/22 00:02:58;;;;;;;5.20;4.38;;;19.20;99.90;;;;;;5050801;28;20177;-78
2022/07/22 00:05:23;;;;;;;6.07;4.78;;;19.40;99.90;;;;;;5021618;28;20265;-78
2022/07/22 00:07:49;;;;;;;5.10;4.35;;;19.30;99.90;;;;;;5054365;28;20204;-78
2022/07/22 00:10:14;;;;;;;5.43;4.75;;;19.20;99.90;;;;;;5021430;28;20177;-78
2022/07/22 00:12:40;;;;;;;5.20;4.70;;;19.30;99.90;;;;;;5054399;28;20205;-78
2022/07/22 00:15:07;;;;;;;5.28;4.50;;;19.30;99.90;;;;;;5054537;28;20203;-78
2022/07/22 00:17:32;;;;;;;5.20;4.78;;;19.20;99.90;;;;;;5054201;28;20209;-77
2022/07/22 00:19:58;;;;;;;4.88;4.47;;;19.20;99.90;;;;;;5054324;28;20598;-78
2022/07/22 00:22:24;;;;;;;5.38;4.88;;;19.20;99.90;;;;;;5054386;28;20174;-78
2022/07/22 00:24:50;;;;;;;5.22;4.75;;;19.20;99.90;;;;;;5056009;28;20215;-78
2022/07/22 00:27:15;;;;;;;5.22;4.72;;;19.20;99.90;;;;;;5054236;28;20197;-78
2022/07/22 00:29:41;;;;;;;179.27;86.03;;;19.40;99.90;;;;;;5054286;28;20204;-78
2022/07/22 00:32:07;;;;;;;7.15;6.45;;;19.40;99.90;;;;;;5053967;28;20205;-78
2022/07/22 00:34:32;;;;;;;4.60;4.20;;;19.40;99.90;;;;;;5021152;28;20192;-78
2022/07/22 00:36:58;;;;;;;4.85;4.45;;;19.30;99.90;;;;;;5037345;28;20251;-78
2022/07/22 00:39:23;;;;;;;477.58;96.13;;;19.40;99.90;;;;;;5020874;28;20737;-78
2022/07/22 00:41:49;;;;;;;5.68;4.50;;;19.30;99.90;;;;;;5053926;28;20169;-78
2022/07/22 00:44:15;;;;;;;5.00;4.60;;;19.20;99.90;;;;;;5037544;28;20239;-78
2022/07/22 00:46:40;;;;;;;4.63;4.22;;;19.30;99.90;;;;;;5053996;28;20178;-78
2022/07/22 00:49:08;;;;;;;5.22;4.30;;;19.30;99.90;;;;;;5020724;28;20223;-78
2022/07/22 00:51:34;;;;;;;4.97;4.57;;;19.30;99.90;;;;;;5070364;28;20200;-78
2022/07/22 00:54:00;;;;;;;4.75;4.35;;;19.40;99.90;;;;;;5070217;28;20174;-78
2022/07/22 00:56:27;;;;;;;4.72;4.28;;;19.40;99.90;;;;;;5055031;28;20260;-78
2022/07/22 00:58:56;;;;;;;42.20;17.50;;;19.30;99.90;;;;;;5070452;28;20200;-78
2022/07/22 01:01:21;;;;;;;5.40;4.90;;;19.50;99.90;;;;;;5053620;28;20170;-78
2022/07/22 01:03:47;;;;;;;6.22;5.70;;;19.40;99.90;;;;;;5053431;28;20181;-78
2022/07/22 01:06:13;;;;;;;5.63;4.70;;;19.30;99.90;;;;;;5037296;28;20177;-78
2022/07/22 01:08:39;;;;;;;4.75;4.35;;;19.30;99.90;;;;;;5053596;28;20201;-78
2022/07/22 01:11:16;;;;;;;5.03;4.55;;;19.40;99.90;;;;;;5070472;28;20197;-78
2022/07/22 01:13:44;;;;;;;5.55;4.80;;;19.40;99.90;;;;;;5053386;28;20169;-78
2022/07/22 01:16:10;;;;;;;4.90;4.40;;;19.40;99.90;;;;;;5068894;28;20174;-78
2022/07/22 01:18:37;;;;;;;5.25;4.75;;;19.40;99.90;;;;;;5053378;28;20280;-78
2022/07/22 01:21:04;;;;;;;5.30;4.70;;;19.40;99.90;;;;;;5053537;28;20170;-78
2022/07/22 01:23:31;;;;;;;5.67;4.67;;;19.40;99.90;;;;;;5069688;28;20542;-77
2022/07/22 01:25:56;;;;;;;43.00;33.03;;;19.20;99.90;;;;;;5053393;28;20173;-78
2022/07/22 01:28:23;;;;;;;4.60;4.20;;;19.30;99.90;;;;;;5054242;28;20272;-78
2022/07/22 01:30:49;;;;;;;5.40;4.53;;;19.30;99.90;;;;;;5053067;28;20180;-78
2022/07/22 01:33:16;;;;;;;5.03;4.53;;;19.40;99.90;;;;;;5069710;28;20169;-77
2022/07/22 01:35:42;;;;;;;6.23;4.90;;;19.40;99.90;;;;;;5036712;28;20272;-78
2022/07/22 01:38:08;;;;;;;4.90;4.13;;;19.30;99.90;;;;;;5052914;28;20262;-78
2022/07/22 01:40:34;;;;;;;4.70;4.20;;;19.40;99.90;;;;;;5036372;28;20683;-77
2022/07/22 01:42:59;;;;;;;5.37;4.07;;;19.30;99.90;;;;;;5036156;28;20169;-78
2022/07/22 01:45:25;;;;;;;4.53;4.13;;;19.30;99.90;;;;;;5052740;28;20231;-78
2022/07/22 01:47:50;;;;;;;6.07;4.60;;;19.30;99.90;;;;;;5019607;28;20194;-77
2022/07/22 01:50:16;;;;;;;5.43;4.47;;;19.20;99.90;;;;;;5019672;28;20174;-78
2022/07/22 01:52:42;;;;;;;5.93;5.33;;;19.20;99.90;;;;;;5035997;28;20182;-78
2022/07/22 01:55:09;;;;;;;5.53;4.80;;;19.20;99.90;;;;;;5036275;28;20213;-77
2022/07/22 01:57:36;;;;;;;5.10;4.60;;;19.20;99.90;;;;;;5052493;28;20205;-78
2022/07/22 02:00:04;;;;;;;5.50;4.50;;;19.20;99.90;;;;;;5053550;28;20235;-78
2022/07/22 02:02:29;;;;;;;5.47;4.93;;;19.20;99.90;;;;;;5052275;28;20208;-78
2022/07/22 02:04:55;;;;;;;5.50;4.97;;;19.20;99.90;;;;;;5036152;28;20201;-78
2022/07/22 02:07:20;;;;;;;5.47;4.97;;;19.20;99.90;;;;;;5052175;28;20235;-78
2022/07/22 02:09:46;;;;;;;4.63;4.23;;;19.20;99.90;;;;;;5019482;28;20181;-78
2022/07/22 02:12:12;;;;;;;5.10;4.60;;;19.10;99.90;;;;;;5052035;28;20193;-78
2022/07/22 02:14:37;;;;;;;35.67;6.63;;;19.00;99.90;;;;;;5068936;28;20216;-78
2022/07/22 02:17:03;;;;;;;5.47;4.77;;;19.10;99.90;;;;;;5035468;28;20255;-78
2022/07/22 02:19:28;;;;;;;4.67;4.23;;;19.00;99.90;;;;;;5052043;28;20216;-78
2022/07/22 02:21:54;;;;;;;5.23;4.73;;;19.10;99.90;;;;;;5018860;28;20178;-78
2022/07/22 02:24:19;;;;;;;5.37;4.57;;;19.10;99.90;;;;;;5052081;28;20173;-78
2022/07/22 02:26:45;;;;;;;6.37;5.30;;;19.10;99.90;;;;;;5035279;28;20186;-78
2022/07/22 02:29:11;;;;;;;6.70;6.00;;;19.00;99.90;;;;;;5035695;28;20182;-77
2022/07/22 02:31:36;;;;;;;6.63;5.60;;;19.00;99.90;;;;;;5035312;28;20648;-78
2022/07/22 02:34:03;;;;;;;6.17;5.57;;;19.00;99.90;;;;;;5068488;28;20284;-78
2022/07/22 02:36:29;;;;;;;6.40;5.80;;;19.00;99.90;;;;;;5035347;28;20365;-78
2022/07/22 02:38:54;;;;;;;6.23;5.63;;;19.10;99.90;;;;;;5052030;28;20668;-78
2022/07/22 02:41:20;;;;;;;6.90;6.10;;;19.10;99.90;;;;;;5051788;28;20658;-78
2022/07/22 02:43:45;;;;;;;6.83;6.13;;;19.10;99.90;;;;;;5018456;28;20177;-78
2022/07/22 02:46:11;;;;;;;8.80;6.13;;;19.10;99.90;;;;;;5035173;28;20204;-78
2022/07/22 02:48:36;;;;;;;7.77;6.00;;;18.90;99.90;;;;;;5051608;28;20224;-78
2022/07/22 02:51:03;;;;;;;6.63;6.03;;;19.00;99.90;;;;;;5051712;28;20185;-77
2022/07/22 02:53:28;;;;;;;6.67;6.07;;;19.00;99.90;;;;;;5034856;28;20264;-78
2022/07/22 02:55:54;;;;;;;6.73;6.13;;;19.00;99.90;;;;;;5051570;28;20260;-78
2022/07/22 02:58:19;;;;;;;6.87;6.10;;;19.10;99.90;;;;;;5018298;28;20197;-78
2022/07/22 03:00:45;;;;;;;6.00;5.50;;;19.10;99.90;;;;;;5051279;28;20262;-78
2022/07/22 03:03:11;;;;;;;5.80;5.30;;;19.10;99.90;;;;;;5034722;28;20660;-78
2022/07/22 03:05:37;;;;;;;6.33;5.67;;;19.10;99.90;;;;;;5068143;28;20224;-78
2022/07/22 03:08:02;;;;;;;6.93;5.90;;;19.10;99.90;;;;;;5051321;28;20197;-78
2022/07/22 03:10:28;;;;;;;6.37;5.73;;;19.20;99.90;;;;;;5051409;28;20182;-78
2022/07/22 03:12:54;;;;;;;6.47;5.87;;;19.00;99.90;;;;;;5034451;28;20185;-78
2022/07/22 03:15:19;;;;;;;6.60;6.00;;;19.00;99.90;;;;;;5051270;28;20185;-78
2022/07/22 03:17:45;;;;;;;7.60;6.90;;;19.00;99.90;;;;;;5051178;28;20209;-78
2022/07/22 03:20:11;;;;;;;6.70;6.00;;;19.10;99.90;;;;;;5034422;28;20216;-78
2022/07/22 03:22:52;;;;;;;21.33;7.17;;;19.00;99.90;;;;;;5067340;28;20209;-77
2022/07/22 03:25:18;;;;;;;8.70;7.80;;;19.00;99.90;;;;;;5051631;28;20172;-77
2022/07/22 03:27:44;;;;;;;6.30;5.70;;;19.00;99.90;;;;;;5051471;28;20609;-77
2022/07/22 03:30:10;;;;;;;6.27;5.67;;;19.00;99.90;;;;;;5035075;28;20636;-78
2022/07/22 03:32:37;;;;;;;14.07;12.93;;;19.10;99.90;;;;;;5068091;28;20180;-77
2022/07/22 03:35:03;;;;;;;12.00;11.10;;;19.20;99.90;;;;;;5018399;28;20285;-78
2022/07/22 03:37:29;;;;;;;8.07;6.90;;;19.10;99.90;;;;;;5067699;28;20197;-78
2022/07/22 03:39:54;;;;;;;7.00;6.30;;;19.10;99.90;;;;;;5052160;28;20216;-78
2022/07/22 03:42:20;;;;;;;7.03;6.37;;;19.00;99.90;;;;;;5052700;28;20556;-78
2022/07/22 03:44:46;;;;;;;7.70;6.90;;;19.00;99.90;;;;;;5018281;28;20177;-77
2022/07/22 03:47:16;;;;;;;6.80;6.20;;;19.00;99.90;;;;;;5018726;28;20197;-78
2022/07/22 03:49:42;;;;;;;7.87;6.43;;;18.90;99.90;;;;;;5035362;28;20212;-78
2022/07/22 03:52:07;;;;;;;6.90;5.60;;;18.90;99.90;;;;;;5051367;28;20601;-78
2022/07/22 03:54:33;;;;;;;6.72;6.03;;;18.90;99.90;;;;;;5034726;28;20184;-77
2022/07/22 03:56:59;;;;;;;7.47;6.10;;;18.90;99.90;;;;;;5018058;28;20289;-78
2022/07/22 03:59:24;;;;;;;6.53;5.93;;;19.00;99.90;;;;;;5034478;28;20217;-78
2022/07/22 04:01:50;;;;;;;6.43;5.83;;;18.90;99.90;;;;;;5017861;28;20205;-77
2022/07/22 04:04:15;;;;;;;6.83;6.13;;;19.00;99.90;;;;;;5018404;28;20204;-78
2022/07/22 04:06:41;;;;;;;6.87;6.17;;;19.00;99.90;;;;;;5018003;28;20184;-78
2022/07/22 04:09:06;;;;;;;6.60;5.93;;;18.90;99.90;;;;;;5051531;28;20181;-77
2022/07/22 04:11:32;;;;;;;6.60;6.00;;;18.90;99.90;;;;;;5051332;28;20328;-78
2022/07/22 04:13:58;;;;;;;6.87;5.87;;;18.90;99.90;;;;;;5051169;28;20189;-77
2022/07/22 04:16:23;;;;;;;7.10;6.40;;;18.90;99.90;;;;;;5017868;28;20211;-78
2022/07/22 04:18:49;;;;;;;6.32;5.72;;;18.90;99.90;;;;;;5050764;28;20243;-78
2022/07/22 04:21:14;;;;;;;6.80;6.10;;;18.90;99.90;;;;;;5018245;28;20178;-78
2022/07/22 04:23:41;;;;;;;6.67;6.07;;;18.90;99.90;;;;;;5017745;28;20174;-78
2022/07/22 04:26:06;;;;;;;7.23;6.20;;;18.90;99.90;;;;;;5050990;28;20260;-78
2022/07/22 04:28:35;;;;;;;6.32;5.72;;;18.90;99.90;;;;;;5034571;28;20656;-78
2022/07/22 04:31:04;;;;;;;6.57;5.97;;;18.90;99.90;;;;;;5034262;28;20188;-78
2022/07/22 04:33:57;;;;;;;7.07;6.37;;;18.90;99.90;;;;;;5067140;28;20304;-78
2022/07/22 04:36:22;;;;;;;6.20;5.60;;;19.00;99.90;;;;;;5051078;28;20204;-78
2022/07/22 04:38:48;;;;;;;6.70;6.00;;;19.00;99.90;;;;;;5050932;28;20197;-77
2022/07/22 04:41:14;;;;;;;6.70;6.10;;;19.00;99.90;;;;;;5051155;28;20181;-77
2022/07/22 04:43:39;;;;;;;7.35;6.65;;;18.90;99.90;;;;;;5034156;28;20177;-78
2022/07/22 04:46:05;;;;;;;7.23;5.90;;;18.90;99.90;;;;;;5050578;28;20197;-78
2022/07/22 04:48:30;;;;;;;6.57;5.97;;;19.00;99.90;;;;;;5050610;28;20323;-78
2022/07/22 04:51:03;;;;;;;6.87;6.03;;;19.00;99.90;;;;;;5053881;28;20573;-78
2022/07/22 04:53:29;;;;;;;6.63;5.97;;;19.00;99.90;;;;;;5054253;28;20185;-78
2022/07/22 04:55:54;;;;;;;7.00;6.30;;;19.00;99.90;;;;;;5071039;28;20193;-78
2022/07/22 04:58:20;;;;;;;6.87;6.27;;;19.00;99.90;;;;;;5054437;28;20211;-77
2022/07/22 05:00:46;;;;;;;49.23;7.57;;;18.90;99.90;;;;;;5021232;28;20211;-77
2022/07/22 05:03:13;;;;;;;7.27;6.57;;;19.00;99.90;;;;;;5037727;28;20178;-77
2022/07/22 05:05:38;;;;;;;807.40;59.03;;;19.20;99.90;;;;;;5055396;28;20174;-77
2022/07/22 05:08:04;;;;;;;6.07;5.37;;;19.60;99.90;;;;;;5070952;28;20198;-77
2022/07/22 05:10:30;;;;;;;6.07;4.30;;;20.30;99.90;;;;;;5037413;28;20648;-76
2022/07/22 05:12:55;;;;;;;4.60;3.10;;;20.50;99.90;;;;;;5037283;28;20184;-76
2022/07/22 05:15:21;;;;;;;5.85;3.38;;;20.90;99.90;;;;;;5037519;28;20182;-76
2022/07/22 05:17:47;;;;;;;3.28;2.42;;;20.70;99.90;;;;;;5049461;22;20261;-77
2022/07/22 05:20:13;;;;;;;3.92;3.15;;;20.40;99.90;;;;;;5013700;28;20265;-76
2022/07/22 05:22:38;;;;;;;3.20;2.78;;;20.60;99.90;;;;;;5013449;28;20175;-79
2022/07/22 05:25:05;;;;;;;2.55;2.00;;;20.50;99.90;;;;;;5014382;28;20225;-78
2022/07/22 05:27:30;;;;;;;1.70;1.50;;;20.10;99.90;;;;;;5014202;28;20217;-79
2022/07/22 05:29:57;;;;;;;3.43;1.17;;;19.70;99.90;;;;;;4997792;28;20240;-79
2022/07/22 05:32:22;;;;;;;1.30;1.20;;;19.40;99.90;;;;;;5013859;28;20183;-78
2022/07/22 05:34:48;;;;;;;1.97;1.43;;;19.20;99.90;;;;;;4998116;28;20171;-78
2022/07/22 05:37:15;;;;;;;1.77;1.53;;;19.00;99.90;;;;;;4997562;28;20293;-78
2022/07/22 05:39:42;;;;;;;3.30;2.50;;;19.10;99.90;;;;;;5013599;28;20202;-76
2022/07/22 05:42:07;;;;;;;2.33;2.13;;;19.00;99.90;;;;;;4980788;28;20664;-75
2022/07/22 05:44:33;;;;;;;2.63;2.07;;;18.90;99.90;;;;;;4997075;28;20175;-76
2022/07/22 05:46:59;;;;;;;3.40;3.10;;;18.90;99.90;;;;;;4980600;28;20175;-81
2022/07/22 05:49:26;;;;;;;3.20;2.90;;;18.90;99.90;;;;;;4996996;28;20262;-75
2022/07/22 05:51:52;;;;;;;3.90;3.10;;;19.00;99.90;;;;;;4981253;28;20179;-75
2022/07/22 05:54:18;;;;;;;3.70;3.40;;;19.00;99.90;;;;;;4996892;28;20175;-75
2022/07/22 05:56:44;;;;;;;4.10;3.70;;;19.00;99.90;;;;;;4996824;28;20175;-76
2022/07/22 05:59:09;;;;;;;4.13;3.73;;;19.00;99.90;;;;;;5012857;28;20207;-74
2022/07/22 06:01:35;;;;;;;3.93;3.50;;;19.10;99.90;;;;;;4979893;28;20185;-76
2022/07/22 06:04:00;;;;;;;3.80;3.40;;;19.20;99.90;;;;;;4980186;28;20680;-77
2022/07/22 06:06:26;;;;;;;3.90;3.60;;;19.30;99.90;;;;;;4980326;28;20251;-77
2022/07/22 06:08:51;;;;;;;3.63;3.17;;;19.30;99.90;;;;;;4980326;28;20199;-77
2022/07/22 06:11:17;;;;;;;3.30;3.00;;;19.40;99.90;;;;;;4980280;28;20171;-76
2022/07/22 06:13:43;;;;;;;3.17;2.87;;;19.40;99.90;;;;;;4996372;28;20253;-76
2022/07/22 06:16:08;;;;;;;3.50;2.90;;;19.40;99.90;;;;;;4980541;28;20179;-75
2022/07/22 06:18:34;;;;;;;3.17;2.80;;;19.40;99.90;;;;;;5012986;28;20206;-78
2022/07/22 06:20:59;;;;;;;3.23;2.87;;;19.50;99.90;;;;;;4980274;28;20179;-78
2022/07/22 06:23:25;;;;;;;4.50;2.80;;;19.50;99.90;;;;;;4980479;28;20178;-77
2022/07/22 06:25:51;;;;;;;3.40;2.90;;;19.40;99.90;;;;;;5013131;28;20583;-77
2022/07/22 06:28:16;;;;;;;3.40;2.90;;;19.40;99.90;;;;;;5013290;28;20199;-78
2022/07/22 06:30:42;;;;;;;3.63;2.83;;;19.40;99.90;;;;;;4996802;28;20175;-76
2022/07/22 06:33:08;;;;;;;3.90;3.00;;;19.30;99.90;;;;;;5012671;28;20172;-78
2022/07/22 06:35:34;;;;;;;3.13;2.70;;;19.20;99.90;;;;;;5014233;28;20195;-77
2022/07/22 06:38:00;;;;;;;2.77;2.37;;;19.30;99.90;;;;;;4996394;28;20195;-77
2022/07/22 06:40:25;;;;;;;5.07;2.83;;;19.30;99.90;;;;;;4979961;28;20587;-77
2022/07/22 06:42:51;;;;;;;2.70;2.50;;;19.30;99.90;;;;;;4979506;28;20179;-74
2022/07/22 06:45:17;;;;;;;3.30;2.70;;;19.40;99.90;;;;;;4979692;28;20172;-76
2022/07/22 06:47:42;;;;;;;3.30;2.93;;;19.40;99.90;;;;;;4980070;28;20783;-76
2022/07/22 06:50:09;;;;;;;3.20;2.83;;;19.30;99.90;;;;;;4995692;28;20175;-76
2022/07/22 06:52:38;;;;;;;3.10;2.80;;;19.40;99.90;;;;;;4996173;28;20669;-76
2022/07/22 06:55:04;;;;;;;4.17;3.03;;;19.50;99.90;;;;;;5012783;28;20171;-75
2022/07/22 06:57:30;;;;;;;3.07;2.53;;;19.60;99.90;;;;;;5012480;28;20222;-76
2022/07/22 06:59:56;;;;;;;2.70;2.50;;;19.70;99.90;;;;;;4979145;28;20293;-76
2022/07/22 07:02:21;;;;;;;3.03;2.33;;;19.80;99.90;;;;;;4979419;28;20178;-74
2022/07/22 07:04:47;;;;;;;2.80;2.50;;;19.90;99.90;;;;;;4995336;28;20183;-75
2022/07/22 07:07:13;;;;;;;2.40;2.20;;;20.00;99.90;;;;;;4979325;28;20717;-74
2022/07/22 07:09:38;;;;;;;2.47;2.27;;;20.00;99.90;;;;;;4995430;28;20277;-75
2022/07/22 07:12:04;;;;;;;3.38;2.08;;;20.10;99.90;;;;;;4995068;28;20217;-74
2022/07/22 07:14:30;;;;;;;2.43;2.20;;;20.20;99.90;;;;;;5011336;28;20179;-74
2022/07/22 07:16:55;;;;;;;2.00;1.83;;;20.10;99.90;;;;;;4979164;28;20183;-74
2022/07/22 07:19:21;;;;;;;3.22;1.70;;;20.00;99.90;;;;;;4979288;28;20260;-75
2022/07/22 07:21:46;;;;;;;1.90;1.80;;;20.00;99.90;;;;;;4979105;28;20179;-75
2022/07/22 07:24:12;;;;;;;1.83;1.67;;;20.00;99.90;;;;;;4995156;28;20607;-75
2022/07/22 07:26:38;;;;;;;1.87;1.77;;;20.20;99.90;;;;;;4995086;28;20175;-74
2022/07/22 07:29:04;;;;;;;1.60;1.50;;;20.20;99.90;;;;;;5011182;28;20199;-75
2022/07/22 07:31:30;;;;;;;1.85;1.67;;;20.30;99.90;;;;;;5011300;28;20231;-74
2022/07/22 07:33:56;;;;;;;1.98;1.70;;;20.30;99.90;;;;;;4995129;28;20201;-75
2022/07/22 07:36:22;;;;;;;1.70;1.60;;;20.30;99.90;;;;;;4995041;28;20174;-75
2022/07/22 07:38:48;;;;;;;1.50;1.40;;;20.40;99.90;;;;;;5011088;28;20210;-75
2022/07/22 07:41:14;;;;;;;2.05;1.75;;;20.50;99.90;;;;;;4994997;28;20262;-75
2022/07/22 07:43:40;;;;;;;1.50;1.40;;;20.50;99.90;;;;;;4994755;28;20211;-75
2022/07/22 07:46:05;;;;;;;3.53;1.80;;;20.50;99.90;;;;;;4995095;28;20252;-75
2022/07/22 07:48:31;;;;;;;2.17;1.98;;;20.70;99.90;;;;;;5011298;28;20198;-75
2022/07/22 07:50:57;;;;;;;1.80;1.70;;;20.60;99.90;;;;;;4994874;28;20181;-75
2022/07/22 07:53:23;;;;;;;2.00;1.80;;;20.70;99.90;;;;;;4994955;28;20174;-75
2022/07/22 07:55:49;;;;;;;1.98;1.88;;;20.90;99.90;;;;;;5011162;28;20183;-74
2022/07/22 07:58:14;;;;;;;2.38;2.03;;;21.10;99.90;;;;;;4994544;28;20199;-75
2022/07/22 08:00:42;;;;;;;1.92;1.60;;;21.10;99.90;;;;;;4994759;28;20210;-75
2022/07/22 08:03:08;;;;;;;2.00;1.80;;;21.10;99.90;;;;;;5010933;28;20167;-75
2022/07/22 08:05:34;;;;;;;2.10;1.90;;;21.40;99.90;;;;;;5011204;28;20221;-75
2022/07/22 08:08:01;;;;;;;2.28;1.65;;;21.40;99.90;;;;;;4994692;28;20195;-75
2022/07/22 08:10:27;;;;;;;2.63;1.90;;;21.60;99.90;;;;;;5010977;28;20182;-76
2022/07/22 08:12:55;;;;;;;2.20;2.00;;;21.60;99.90;;;;;;4994382;28;20179;-76
2022/07/22 08:15:21;;;;;;;1.70;1.60;;;21.90;99.90;;;;;;5010865;28;20700;-75
2022/07/22 08:17:46;;;;;;;1.77;1.67;;;21.90;99.90;;;;;;4978275;28;20309;-76
2022/07/22 08:20:12;;;;;;;2.35;2.15;;;22.00;99.90;;;;;;4994510;28;20587;-76
2022/07/22 08:22:38;;;;;;;1.83;1.42;;;22.00;99.90;;;;;;5000063;28;20171;-78
2022/07/22 08:25:04;;;;;;;1.52;1.35;;;22.00;99.90;;;;;;4987912;28;20646;-78
2022/07/22 08:27:30;;;;;;;1.50;1.10;;;22.10;99.90;;;;;;5005071;28;20201;-78
2022/07/22 08:29:55;;;;;;;1.40;1.17;;;22.20;99.90;;;;;;5005568;28;20273;-79
2022/07/22 08:32:21;;;;;;;1.52;1.27;;;22.40;99.90;;;;;;5004848;28;20179;-78
2022/07/22 08:34:47;;;;;;;1.40;1.30;;;22.60;99.90;;;;;;5021400;28;20175;-78
2022/07/22 08:37:13;;;;;;;1.67;1.27;;;22.50;99.90;;;;;;5021253;28;20261;-79
2022/07/22 08:39:39;;;;;;;1.67;1.38;;;22.20;99.90;;;;;;5004890;28;20202;-78
2022/07/22 08:42:04;;;;;;;1.48;1.23;;;22.10;99.90;;;;;;5021075;28;20228;-78
2022/07/22 08:44:33;;;;;;;1.75;1.15;;;22.20;99.90;;;;;;5021670;28;20260;-79
2022/07/22 08:47:00;;;;;;;1.95;1.30;;;22.60;99.90;;;;;;4988823;28;20242;-79
2022/07/22 08:49:26;;;;;;;1.70;1.48;;;22.80;99.90;;;;;;5028197;28;20257;-78
2022/07/22 08:51:52;;;;;;;1.40;1.30;;;22.70;99.90;;;;;;5011804;28;20174;-79
2022/07/22 08:54:18;;;;;;;1.60;1.50;;;22.50;99.90;;;;;;5018945;28;20220;-78
2022/07/22 08:56:51;;;;;;;1.63;1.52;;;22.50;99.90;;;;;;5016361;28;20232;-79
2022/07/22 08:59:17;;;;;;;1.42;1.33;;;22.60;99.90;;;;;;5016084;28;20257;-79
2022/07/22 09:02:09;;;;;;;1.85;1.67;;;22.60;99.90;;;;;;4983030;28;20178;-79
2022/07/22 09:04:53;;;;;;;4.13;2.05;;;22.70;99.90;;;;;;5015249;28;20171;-79
2022/07/22 09:07:29;;;;;;;1.90;1.70;;;23.10;99.90;;;;;;5015099;28;20195;-79
2022/07/22 09:09:56;;;;;;;1.95;1.60;;;23.50;99.90;;;;;;4998649;28;20251;-79
2022/07/22 09:12:22;;;;;;;5.88;1.20;;;23.90;99.90;;;;;;4998318;28;20270;-78
2022/07/22 09:14:51;;;;;;;1.58;1.48;;;23.70;99.90;;;;;;5014928;28;20179;-79
2022/07/22 09:17:35;;;;;;;1.13;1.00;;;24.10;99.90;;;;;;4982707;28;20221;-79
2022/07/22 09:20:03;;;;;;;34.00;3.30;;;24.30;99.90;;;;;;5014973;28;20205;-79
2022/07/22 09:22:37;;;;;;;2.35;2.15;;;24.50;99.90;;;;;;4998411;28;20279;-79
2022/07/22 09:25:21;;;;;;;2.10;2.00;;;24.30;99.90;;;;;;5014657;28;20253;-79
2022/07/22 09:27:48;;;;;;;125.50;14.70;;;23.60;99.90;;;;;;5016869;28;20205;-79
2022/07/22 09:30:25;;;;;;;2.65;2.20;;;23.50;99.90;;;;;;5018884;28;20233;-79
2022/07/22 09:32:52;;;;;;;2.55;2.30;;;23.30;99.90;;;;;;4986573;28;20186;-78
2022/07/22 09:35:21;;;;;;;2.65;2.35;;;23.20;99.90;;;;;;5002072;28;20270;-79
2022/07/22 09:37:59;;;;;;;2.25;2.05;;;23.10;99.90;;;;;;5016943;28;20199;-79
2022/07/22 09:40:30;;;;;;;2.65;2.28;;;23.10;99.90;;;;;;5016878;28;20213;-79
2022/07/22 09:43:04;;;;;;;2.53;2.33;;;23.20;99.90;;;;;;5017477;28;20731;-79
2022/07/22 09:45:31;;;;;;;2.60;2.40;;;23.50;99.90;;;;;;4982506;28;20179;-79
2022/07/22 09:47:59;;;;;;;2.50;2.30;;;23.90;99.90;;;;;;4999092;28;20203;-79
2022/07/22 09:50:27;;;;;;;4.50;2.63;;;24.20;99.90;;;;;;4989300;28;20237;-78
2022/07/22 09:52:55;;;;;;;3.00;2.60;;;24.40;99.90;;;;;;5014351;28;20182;-79
2022/07/22 09:55:24;;;;;;;2.70;2.50;;;24.70;99.90;;;;;;5015034;28;20230;-78
2022/07/22 09:57:51;;;;;;;2.80;2.60;;;24.90;99.90;;;;;;5015185;28;20257;-79
2022/07/22 10:00:20;;;;;;;2.50;2.30;;;25.30;99.90;;;;;;4998144;28;20207;-81
2022/07/22 10:02:50;;;;;;;3.08;2.80;;;25.50;99.90;;;;;;4997697;28;20202;-81
2022/07/22 10:05:20;;;;;;;2.85;2.30;;;25.50;99.90;;;;;;4997923;28;20175;-80
2022/07/22 10:07:47;;;;;;;2.92;2.70;;;25.70;99.90;;;;;;4997800;28;20199;-80
2022/07/22 10:10:18;;;;;;;4.15;2.80;;;25.50;99.90;;;;;;4997723;28;20182;-78
2022/07/22 10:12:45;;;;;;;3.65;2.40;;;25.30;99.90;;;;;;4996223;28;20179;-78
2022/07/22 10:15:11;;;;;;;3.08;2.80;;;25.70;99.90;;;;;;5012976;28;20273;-78
2022/07/22 10:17:40;;;;;;;3.20;2.90;;;25.90;99.90;;;;;;4997513;28;20219;-80
2022/07/22 10:20:07;;;;;;;3.10;2.88;;;26.00;99.90;;;;;;5013959;28;20230;-81
2022/07/22 10:47:54;;;;;;;602.25;334.77;;;27.10;99.90;;;;;;5069822;28;20613;-75
2022/07/22 10:50:39;;;;;;;511.10;231.57;;;26.80;99.90;;;;;;5052268;28;20169;-75
2022/07/22 10:53:14;;;;;;;7.43;5.75;;;27.30;99.90;;;;;;5084394;22;20235;-75
2022/07/22 10:56:00;;;;;;;4.05;3.65;;;27.60;99.90;;;;;;5069947;28;20187;-75
2022/07/22 10:58:34;;;;;;;4.80;4.03;;;28.10;99.70;;;;;;5051767;28;20662;-75
2022/07/22 11:01:02;;;;;;;6.10;4.47;;;28.20;97.80;;;;;;5069825;28;20669;-75
2022/07/22 11:03:30;;;;;;;4.28;3.88;;;28.20;97.70;;;;;;5052101;28;20193;-74
2022/07/22 11:05:56;;;;;;;5.38;4.68;;;28.30;96.50;;;;;;5035109;28;20205;-75
2022/07/22 11:08:22;;;;;;;3.35;3.08;;;27.40;97.10;;;;;;5035095;28;20181;-76
2022/07/22 11:10:49;;;;;;;3.47;3.03;;;27.30;97.30;;;;;;5069402;28;20641;-77
2022/07/22 11:13:31;;;;;;;4.55;3.22;;;27.70;98.60;;;;;;5035030;28;20200;-76
2022/07/22 11:16:14;;;;;;;4.05;2.80;;;28.00;96.50;;;;;;5035347;28;20181;-76
2022/07/22 11:18:57;;;;;;;3.30;3.00;;;27.90;97.60;;;;;;5051561;28;20180;-76
2022/07/22 11:21:26;;;;;;;3.50;3.20;;;28.00;97.40;;;;;;5036412;28;20165;-76
2022/07/22 11:23:54;;;;;;;3.40;3.10;;;28.00;96.10;;;;;;5051635;28;20235;-76
2022/07/22 11:26:26;;;;;;;3.40;3.10;;;28.00;96.70;;;;;;5034873;28;20195;-76
2022/07/22 11:28:51;;;;;;;3.28;2.97;;;28.20;96.30;;;;;;5051776;28;20612;-76
2022/07/22 11:31:18;;;;;;;3.50;3.03;;;28.30;95.70;;;;;;5034727;28;20184;-76
2022/07/22 11:33:47;;;;;;;3.28;2.97;;;28.30;94.90;;;;;;5051450;28;20188;-76
2022/07/22 11:36:13;;;;;;;3.88;3.13;;;28.40;95.70;;;;;;5051018;28;20218;-76
2022/07/22 11:38:41;;;;;;;3.17;2.92;;;28.80;95.60;;;;;;5051230;28;20521;-76
2022/07/22 11:41:07;;;;;;;3.30;3.00;;;29.10;94.30;;;;;;5051223;28;20169;-77
2022/07/22 11:43:39;;;;;;;3.53;3.10;;;29.30;92.90;;;;;;5034403;28;20208;-76
2022/07/22 11:46:05;;;;;;;3.55;3.20;;;29.50;93.50;;;;;;5051140;28;20204;-76
2022/07/22 11:48:31;;;;;;;4.95;3.40;;;29.50;92.70;;;;;;5034163;28;20170;-77
2022/07/22 11:51:04;;;;;;;3.70;3.40;;;29.40;90.90;;;;;;5050857;28;20173;-77
2022/07/22 11:53:29;;;;;;;3.80;3.50;;;29.20;90.20;;;;;;5034210;28;20300;-77
2022/07/22 11:56:03;;;;;;;3.35;3.15;;;29.10;89.70;;;;;;5050819;28;20272;-77
2022/07/22 11:58:46;;;;;;;4.15;3.53;;;28.90;90.90;;;;;;5025056;28;20178;-77
2022/07/22 12:01:15;;;;;;;4.93;3.25;;;29.10;91.00;;;;;;5037432;28;20675;-77
2022/07/22 12:03:45;;;;;;;3.60;3.30;;;29.30;90.10;;;;;;5021109;28;20680;-76
2022/07/22 12:06:13;;;;;;;3.70;3.40;;;29.70;90.30;;;;;;5037340;28;20193;-77
2022/07/22 12:08:45;;;;;;;5.65;3.65;;;30.00;89.30;;;;;;5037306;28;20223;-77
2022/07/22 12:11:13;;;;;;;4.18;3.75;;;29.50;86.40;;;;;;5021872;28;20170;-77
2022/07/22 12:13:43;;;;;;;3.80;3.50;;;30.10;86.70;;;;;;5037451;28;20199;-76
2022/07/22 12:16:27;;;;;;;4.07;3.67;;;30.00;84.40;;;;;;5037101;28;20224;-77
2022/07/22 12:19:02;;;;;;;4.05;2.47;;;30.00;81.70;;;;;;5037176;28;20178;-76
2022/07/22 12:21:52;;;;;;;3.70;3.40;;;29.90;82.80;;;;;;5055023;28;20196;-76
2022/07/22 12:24:27;;;;;;;3.40;3.13;;;29.90;82.60;;;;;;5055191;28;20204;-76
2022/07/22 12:26:54;;;;;;;3.80;3.50;;;29.80;81.80;;;;;;5036795;28;20308;-77
2022/07/22 12:29:29;;;;;;;3.55;3.25;;;30.00;84.70;;;;;;5036978;28;20533;-77
2022/07/22 12:32:01;;;;;;;4.88;3.38;;;30.30;80.60;;;;;;5020843;28;20219;-76
2022/07/22 12:34:41;;;;;;;4.85;3.50;;;30.20;80.40;;;;;;5037170;28;20166;-77
2022/07/22 12:37:23;;;;;;;3.72;3.42;;;30.20;80.30;;;;;;5020179;28;20181;-76
2022/07/22 12:40:09;;;;;;;4.05;3.70;;;30.00;81.40;;;;;;5054493;28;20636;-77
2022/07/22 12:42:58;;;;;;;4.50;3.40;;;30.00;79.60;;;;;;5036883;28;20252;-77
2022/07/22 12:45:26;;;;;;;4.47;3.60;;;30.30;78.80;;;;;;5036736;28;20170;-77
2022/07/22 12:48:03;;;;;;;4.10;3.80;;;30.00;77.90;;;;;;5036420;28;20177;-77
2022/07/22 12:50:53;;;;;;;4.03;3.67;;;30.20;78.70;;;;;;5036938;28;20276;-77
2022/07/22 12:53:19;;;;;;;4.10;3.70;;;30.20;80.70;;;;;;5036813;28;20737;-78
2022/07/22 12:55:47;;;;;;;3.83;3.45;;;30.40;79.50;;;;;;5020898;28;20264;-77
2022/07/22 12:58:14;;;;;;;4.18;3.83;;;30.70;81.60;;;;;;5019707;28;20226;-76
2022/07/22 13:00:46;;;;;;;3.60;3.30;;;30.90;76.50;;;;;;5036685;28;20213;-76
2022/07/22 13:03:12;;;;;;;4.78;3.60;;;31.20;76.40;;;;;;5020910;28;20602;-76
2022/07/22 13:05:40;;;;;;;3.63;3.33;;;31.30;75.50;;;;;;5020055;28;20261;-76
2022/07/22 13:08:06;;;;;;;4.00;3.60;;;31.20;73.80;;;;;;5036379;28;20173;-76
2022/07/22 13:10:32;;;;;;;3.85;3.55;;;31.20;74.50;;;;;;5053312;28;20178;-76
2022/07/22 13:12:58;;;;;;;3.83;3.50;;;31.00;73.40;;;;;;5019606;28;20297;-76